SWA954 KMEM-KLIT
Flight info
| Callsign | SWA954 |
|---|---|
| Flight time | 0h 27m |
| Altitude | 20000 |
| Route | CHLDR5 ANSWA |
| Aircraft | B738/M-SDE2E3FGHIRWXY/LB1 |
Departure
| Time | 2026-05-08 01:12 |
|---|---|
| Airport | Memphis International Airport (KMEM) |
Arrival
| Time | 2026-05-08 01:39 |
|---|---|
| Airport | Bill & Hillary Clinton National Airport/Adams Field (KLIT) |
| Time | Latitude | Longitude | Altitude | Speed | Heading |
|---|---|---|---|---|---|
| 2026-05-08 00:41 | 35.04077 | -89.98287 | 307 ft | 0 kts | 295° |
| 2026-05-08 00:48 | 35.04077 | -89.98286 | 307 ft | 1 kts | 295° |
| 2026-05-08 00:48 | 35.04070 | -89.98260 | 305 ft | 4 kts | 263° |
| 2026-05-08 00:48 | 35.04080 | -89.98232 | 307 ft | 4 kts | 231° |
| 2026-05-08 00:48 | 35.04087 | -89.98221 | 307 ft | 2 kts | 231° |
| 2026-05-08 00:49 | 35.04087 | -89.98220 | 307 ft | 1 kts | 231° |
| 2026-05-08 01:05 | 35.04086 | -89.98222 | 307 ft | 2 kts | 225° |
| 2026-05-08 01:06 | 35.04060 | -89.98249 | 307 ft | 8 kts | 226° |
| 2026-05-08 01:06 | 35.04014 | -89.98326 | 306 ft | 13 kts | 244° |
| 2026-05-08 01:06 | 35.03979 | -89.98447 | 305 ft | 17 kts | 242° |
| 2026-05-08 01:06 | 35.03875 | -89.98493 | 306 ft | 18 kts | 178° |
| 2026-05-08 01:07 | 35.03744 | -89.98488 | 307 ft | 22 kts | 179° |
| 2026-05-08 01:07 | 35.03572 | -89.98479 | 312 ft | 21 kts | 180° |
| 2026-05-08 01:07 | 35.03419 | -89.98477 | 314 ft | 26 kts | 179° |
| 2026-05-08 01:07 | 35.03212 | -89.98474 | 315 ft | 31 kts | 180° |
| 2026-05-08 01:08 | 35.02967 | -89.98464 | 314 ft | 36 kts | 179° |
| 2026-05-08 01:08 | 35.02719 | -89.98463 | 317 ft | 36 kts | 179° |
| 2026-05-08 01:08 | 35.02505 | -89.98458 | 319 ft | 25 kts | 179° |
| 2026-05-08 01:08 | 35.02414 | -89.98507 | 322 ft | 11 kts | 253° |
| 2026-05-08 01:09 | 35.02407 | -89.98564 | 322 ft | 0 kts | 266° |
| 2026-05-08 01:09 | 35.02407 | -89.98579 | 322 ft | 7 kts | 268° |
| 2026-05-08 01:09 | 35.02429 | -89.98677 | 322 ft | 13 kts | 322° |
| 2026-05-08 01:09 | 35.02470 | -89.98690 | 321 ft | 0 kts | 356° |
| 2026-05-08 01:11 | 35.02481 | -89.98691 | 321 ft | 8 kts | 356° |
| 2026-05-08 01:11 | 35.02758 | -89.98697 | 313 ft | 84 kts | 359° |
| 2026-05-08 01:12 | 35.03611 | -89.98718 | 315 ft | 162 kts | 359° |
| 2026-05-08 01:12 | 35.04873 | -89.98724 | 775 ft | 200 kts | 357° |
| 2026-05-08 01:12 | 35.06319 | -89.98835 | 1691 ft | 205 kts | 359° |
| 2026-05-08 01:12 | 35.07711 | -89.98958 | 2837 ft | 205 kts | 341° |
| 2026-05-08 01:13 | 35.09025 | -89.99887 | 3217 ft | 228 kts | 327° |
| 2026-05-08 01:13 | 35.10345 | -90.00904 | 3445 ft | 252 kts | 329° |
| 2026-05-08 01:13 | 35.11880 | -90.02021 | 4089 ft | 259 kts | 329° |
| 2026-05-08 01:13 | 35.13370 | -90.03275 | 4885 ft | 262 kts | 313° |
| 2026-05-08 01:14 | 35.14267 | -90.05179 | 5743 ft | 260 kts | 288° |
| 2026-05-08 01:14 | 35.14558 | -90.07349 | 6626 ft | 260 kts | 275° |
| 2026-05-08 01:14 | 35.14616 | -90.09562 | 7382 ft | 261 kts | 273° |
| 2026-05-08 01:14 | 35.14654 | -90.11785 | 8139 ft | 262 kts | 273° |
| 2026-05-08 01:15 | 35.14585 | -90.14028 | 8906 ft | 266 kts | 261° |
| 2026-05-08 01:15 | 35.13910 | -90.16152 | 9708 ft | 271 kts | 248° |
| 2026-05-08 01:15 | 35.13067 | -90.18224 | 10357 ft | 276 kts | 248° |
| 2026-05-08 01:15 | 35.12279 | -90.20178 | 10514 ft | 296 kts | 248° |
| 2026-05-08 01:16 | 35.11344 | -90.22517 | 10681 ft | 317 kts | 248° |
| 2026-05-08 01:16 | 35.10341 | -90.25013 | 10838 ft | 337 kts | 247° |
| 2026-05-08 01:16 | 35.09272 | -90.27617 | 11196 ft | 347 kts | 247° |
| 2026-05-08 01:16 | 35.08177 | -90.30260 | 11833 ft | 349 kts | 246° |
| 2026-05-08 01:17 | 35.07078 | -90.32903 | 12565 ft | 348 kts | 247° |
| 2026-05-08 01:17 | 35.05981 | -90.35545 | 13280 ft | 349 kts | 247° |
| 2026-05-08 01:17 | 35.04883 | -90.38194 | 13961 ft | 350 kts | 247° |
| 2026-05-08 01:17 | 35.03783 | -90.40850 | 14531 ft | 353 kts | 247° |
| 2026-05-08 01:18 | 35.02686 | -90.43499 | 15133 ft | 355 kts | 247° |
| 2026-05-08 01:18 | 35.01570 | -90.46194 | 15776 ft | 356 kts | 247° |
| 2026-05-08 01:18 | 35.00437 | -90.48928 | 16431 ft | 357 kts | 247° |
| 2026-05-08 01:18 | 34.99312 | -90.51640 | 17051 ft | 360 kts | 247° |
| 2026-05-08 01:19 | 34.98180 | -90.54365 | 17669 ft | 360 kts | 246° |
| 2026-05-08 01:19 | 34.97064 | -90.57052 | 18332 ft | 360 kts | 246° |
| 2026-05-08 01:19 | 34.95926 | -90.59790 | 18840 ft | 363 kts | 247° |
| 2026-05-08 01:19 | 34.94782 | -90.62542 | 19282 ft | 367 kts | 247° |
| 2026-05-08 01:20 | 34.93621 | -90.65331 | 19738 ft | 369 kts | 247° |
| 2026-05-08 01:20 | 34.92455 | -90.68129 | 20042 ft | 370 kts | 247° |
| 2026-05-08 01:20 | 34.91292 | -90.70912 | 20053 ft | 367 kts | 247° |
| 2026-05-08 01:20 | 34.90287 | -90.73711 | 20044 ft | 351 kts | 257° |
| 2026-05-08 01:21 | 34.89841 | -90.76551 | 20061 ft | 333 kts | 262° |
| 2026-05-08 01:21 | 34.89459 | -90.79288 | 20004 ft | 328 kts | 262° |
| 2026-05-08 01:21 | 34.89057 | -90.82045 | 19593 ft | 330 kts | 261° |
| 2026-05-08 01:21 | 34.88644 | -90.84785 | 19183 ft | 327 kts | 261° |
| 2026-05-08 01:22 | 34.88229 | -90.87494 | 18779 ft | 325 kts | 261° |
| 2026-05-08 01:22 | 34.87815 | -90.90197 | 18351 ft | 323 kts | 261° |
| 2026-05-08 01:22 | 34.87402 | -90.92881 | 17893 ft | 321 kts | 261° |
| 2026-05-08 01:22 | 34.86992 | -90.95541 | 17457 ft | 319 kts | 261° |
| 2026-05-08 01:23 | 34.86585 | -90.98186 | 17028 ft | 316 kts | 261° |
| 2026-05-08 01:23 | 34.86206 | -91.00645 | 16624 ft | 315 kts | 261° |
| 2026-05-08 01:23 | 34.85803 | -91.03258 | 16210 ft | 313 kts | 261° |
| 2026-05-08 01:23 | 34.85403 | -91.05851 | 15809 ft | 311 kts | 261° |
| 2026-05-08 01:24 | 34.85005 | -91.08427 | 15405 ft | 309 kts | 261° |
| 2026-05-08 01:24 | 34.84607 | -91.10995 | 15023 ft | 307 kts | 261° |
| 2026-05-08 01:24 | 34.84216 | -91.13520 | 14644 ft | 306 kts | 261° |
| 2026-05-08 01:24 | 34.83822 | -91.16060 | 14246 ft | 305 kts | 261° |
| 2026-05-08 01:25 | 34.83429 | -91.18588 | 13863 ft | 304 kts | 261° |
| 2026-05-08 01:25 | 34.83036 | -91.21113 | 13432 ft | 303 kts | 261° |
| 2026-05-08 01:25 | 34.82643 | -91.23630 | 13036 ft | 301 kts | 261° |
| 2026-05-08 01:25 | 34.82253 | -91.26128 | 12649 ft | 300 kts | 262° |
| 2026-05-08 01:26 | 34.81865 | -91.28612 | 12273 ft | 298 kts | 262° |
| 2026-05-08 01:26 | 34.81477 | -91.31088 | 11895 ft | 297 kts | 262° |
| 2026-05-08 01:26 | 34.81090 | -91.33560 | 11518 ft | 296 kts | 262° |
| 2026-05-08 01:26 | 34.80704 | -91.36019 | 11145 ft | 295 kts | 262° |
| 2026-05-08 01:27 | 34.80320 | -91.38460 | 10798 ft | 294 kts | 262° |
| 2026-05-08 01:27 | 34.79941 | -91.40867 | 10660 ft | 285 kts | 262° |
| 2026-05-08 01:27 | 34.79572 | -91.43198 | 10526 ft | 277 kts | 262° |
| 2026-05-08 01:27 | 34.79219 | -91.45471 | 10399 ft | 268 kts | 265° |
| 2026-05-08 01:28 | 34.79213 | -91.47687 | 10288 ft | 257 kts | 277° |
| 2026-05-08 01:28 | 34.79420 | -91.49810 | 10184 ft | 249 kts | 279° |
| 2026-05-08 01:28 | 34.79644 | -91.51864 | 10080 ft | 241 kts | 279° |
| 2026-05-08 01:28 | 34.79863 | -91.53831 | 9917 ft | 236 kts | 279° |
| 2026-05-08 01:29 | 34.80087 | -91.55829 | 9686 ft | 234 kts | 279° |
| 2026-05-08 01:29 | 34.80306 | -91.57771 | 9443 ft | 236 kts | 279° |
| 2026-05-08 01:29 | 34.80532 | -91.59777 | 9207 ft | 241 kts | 279° |
| 2026-05-08 01:29 | 34.80765 | -91.61831 | 8969 ft | 248 kts | 279° |
| 2026-05-08 01:30 | 34.81006 | -91.63933 | 8721 ft | 253 kts | 279° |
| 2026-05-08 01:30 | 34.81249 | -91.66045 | 8497 ft | 250 kts | 279° |
| 2026-05-08 01:30 | 34.81407 | -91.67425 | 8355 ft | 248 kts | 279° |
| 2026-05-08 01:30 | 34.81641 | -91.69487 | 8161 ft | 243 kts | 279° |
| 2026-05-08 01:31 | 34.81870 | -91.71509 | 7997 ft | 238 kts | 279° |
| 2026-05-08 01:31 | 34.82095 | -91.73514 | 7515 ft | 242 kts | 279° |
| 2026-05-08 01:31 | 34.82329 | -91.75583 | 6934 ft | 250 kts | 279° |
| 2026-05-08 01:31 | 34.82567 | -91.77689 | 6467 ft | 251 kts | 279° |
| 2026-05-08 01:32 | 34.82806 | -91.79795 | 6040 ft | 250 kts | 279° |
| 2026-05-08 01:32 | 34.83047 | -91.81880 | 5663 ft | 247 kts | 279° |
| 2026-05-08 01:32 | 34.83292 | -91.83926 | 5345 ft | 242 kts | 279° |
| 2026-05-08 01:32 | 34.83537 | -91.85927 | 5060 ft | 237 kts | 279° |
| 2026-05-08 01:33 | 34.83785 | -91.87887 | 4797 ft | 236 kts | 279° |
| 2026-05-08 01:33 | 34.84042 | -91.89868 | 4522 ft | 237 kts | 279° |
| 2026-05-08 01:33 | 34.84307 | -91.91846 | 4258 ft | 236 kts | 279° |
| 2026-05-08 01:33 | 34.84585 | -91.93817 | 3993 ft | 234 kts | 279° |
| 2026-05-08 01:34 | 34.84861 | -91.95737 | 3788 ft | 224 kts | 279° |
| 2026-05-08 01:34 | 34.85124 | -91.97541 | 3671 ft | 210 kts | 279° |
| 2026-05-08 01:34 | 34.85378 | -91.99275 | 3585 ft | 204 kts | 279° |
| 2026-05-08 01:34 | 34.85591 | -92.00843 | 3514 ft | 202 kts | 274° |
| 2026-05-08 01:35 | 34.85375 | -92.02513 | 3431 ft | 203 kts | 245° |
| 2026-05-08 01:35 | 34.84677 | -92.03992 | 3366 ft | 198 kts | 239° |
| 2026-05-08 01:35 | 34.83986 | -92.05408 | 3209 ft | 190 kts | 239° |
| 2026-05-08 01:35 | 34.83267 | -92.06734 | 3097 ft | 186 kts | 231° |
| 2026-05-08 01:36 | 34.82418 | -92.07929 | 2858 ft | 186 kts | 228° |
| 2026-05-08 01:36 | 34.81558 | -92.09099 | 2620 ft | 184 kts | 227° |
| 2026-05-08 01:36 | 34.80720 | -92.10244 | 2396 ft | 179 kts | 227° |
| 2026-05-08 01:36 | 34.79896 | -92.11374 | 2152 ft | 178 kts | 227° |
| 2026-05-08 01:37 | 34.79069 | -92.12508 | 1911 ft | 181 kts | 227° |
| 2026-05-08 01:37 | 34.78241 | -92.13646 | 1700 ft | 174 kts | 227° |
| 2026-05-08 01:37 | 34.77468 | -92.14707 | 1434 ft | 160 kts | 227° |
| 2026-05-08 01:37 | 34.76765 | -92.15708 | 1207 ft | 154 kts | 231° |
| 2026-05-08 01:38 | 34.76107 | -92.16721 | 1002 ft | 153 kts | 229° |
| 2026-05-08 01:38 | 34.75409 | -92.17688 | 824 ft | 152 kts | 225° |
| 2026-05-08 01:38 | 34.74681 | -92.18626 | 641 ft | 153 kts | 225° |
| 2026-05-08 01:38 | 34.73966 | -92.19548 | 422 ft | 150 kts | 224° |
| 2026-05-08 01:39 | 34.73256 | -92.20444 | 276 ft | 140 kts | 224° |
| 2026-05-08 01:39 | 34.72652 | -92.21213 | 266 ft | 103 kts | 226° |
| 2026-05-08 01:39 | 34.72306 | -92.21656 | 265 ft | 43 kts | 226° |
| 2026-05-08 01:39 | 34.72172 | -92.21858 | 262 ft | 15 kts | 266° |
| 2026-05-08 01:40 | 34.72207 | -92.21927 | 264 ft | 7 kts | 325° |
| 2026-05-08 01:40 | 34.72253 | -92.21929 | 265 ft | 7 kts | 36° |
| 2026-05-08 01:40 | 34.72292 | -92.21886 | 265 ft | 9 kts | 41° |
| 2026-05-08 01:40 | 34.72353 | -92.21822 | 266 ft | 15 kts | 41° |
| 2026-05-08 01:41 | 34.72444 | -92.21726 | 266 ft | 19 kts | 41° |
| 2026-05-08 01:41 | 34.72536 | -92.21618 | 266 ft | 18 kts | 46° |